sensor_id;sensor_type;location;lat;lon;timestamp;P1;durP1;ratioP1;P2;durP2;ratioP2
48122;SDS011;33907;47.426;18.906;2024-03-17T00:00:38;4.75;;;2.28;;
48122;SDS011;33907;47.426;18.906;2024-03-17T00:03:06;4.65;;;2.12;;
48122;SDS011;33907;47.426;18.906;2024-03-17T00:05:36;5.20;;;2.15;;
48122;SDS011;33907;47.426;18.906;2024-03-17T00:08:04;5.65;;;2.10;;
48122;SDS011;33907;47.426;18.906;2024-03-17T00:10:31;6.15;;;2.30;;
48122;SDS011;33907;47.426;18.906;2024-03-17T00:12:58;5.43;;;2.30;;
48122;SDS011;33907;47.426;18.906;2024-03-17T00:15:24;5.30;;;1.80;;
48122;SDS011;33907;47.426;18.906;2024-03-17T00:17:51;4.22;;;1.95;;
48122;SDS011;33907;47.426;18.906;2024-03-17T00:20:18;7.15;;;1.90;;
48122;SDS011;33907;47.426;18.906;2024-03-17T00:22:48;3.80;;;1.98;;
48122;SDS011;33907;47.426;18.906;2024-03-17T00:25:15;5.25;;;2.05;;
48122;SDS011;33907;47.426;18.906;2024-03-17T00:27:42;4.65;;;2.30;;
48122;SDS011;33907;47.426;18.906;2024-03-17T00:30:11;5.95;;;2.10;;
48122;SDS011;33907;47.426;18.906;2024-03-17T00:32:42;3.85;;;1.80;;
48122;SDS011;33907;47.426;18.906;2024-03-17T00:35:09;3.83;;;1.90;;
48122;SDS011;33907;47.426;18.906;2024-03-17T00:37:36;3.58;;;1.73;;
48122;SDS011;33907;47.426;18.906;2024-03-17T00:40:03;2.72;;;1.58;;
48122;SDS011;33907;47.426;18.906;2024-03-17T00:42:29;3.78;;;1.62;;
48122;SDS011;33907;47.426;18.906;2024-03-17T00:44:56;5.60;;;2.00;;
48122;SDS011;33907;47.426;18.906;2024-03-17T00:47:23;5.35;;;1.70;;
48122;SDS011;33907;47.426;18.906;2024-03-17T00:49:49;5.43;;;1.92;;
48122;SDS011;33907;47.426;18.906;2024-03-17T00:52:16;4.85;;;1.98;;
48122;SDS011;33907;47.426;18.906;2024-03-17T00:54:46;4.78;;;2.05;;
48122;SDS011;33907;47.426;18.906;2024-03-17T00:57:13;5.85;;;2.10;;
48122;SDS011;33907;47.426;18.906;2024-03-17T00:59:42;3.92;;;1.90;;
48122;SDS011;33907;47.426;18.906;2024-03-17T01:02:12;4.18;;;2.00;;
48122;SDS011;33907;47.426;18.906;2024-03-17T01:04:39;4.75;;;2.12;;
48122;SDS011;33907;47.426;18.906;2024-03-17T01:07:06;4.85;;;2.33;;
48122;SDS011;33907;47.426;18.906;2024-03-17T01:09:33;3.70;;;1.90;;
48122;SDS011;33907;47.426;18.906;2024-03-17T01:11:59;5.20;;;2.10;;
48122;SDS011;33907;47.426;18.906;2024-03-17T01:14:26;5.90;;;2.55;;
48122;SDS011;33907;47.426;18.906;2024-03-17T01:16:54;4.28;;;2.47;;
48122;SDS011;33907;47.426;18.906;2024-03-17T01:19:21;5.65;;;2.58;;
48122;SDS011;33907;47.426;18.906;2024-03-17T01:21:48;5.15;;;2.47;;
48122;SDS011;33907;47.426;18.906;2024-03-17T01:24:14;4.60;;;2.67;;
48122;SDS011;33907;47.426;18.906;2024-03-17T01:26:42;4.65;;;2.65;;
48122;SDS011;33907;47.426;18.906;2024-03-17T01:29:09;4.00;;;2.53;;
48122;SDS011;33907;47.426;18.906;2024-03-17T01:31:36;5.20;;;2.90;;
48122;SDS011;33907;47.426;18.906;2024-03-17T01:34:03;4.43;;;2.58;;
48122;SDS011;33907;47.426;18.906;2024-03-17T01:36:29;5.57;;;2.67;;
48122;SDS011;33907;47.426;18.906;2024-03-17T01:38:56;4.70;;;2.50;;
48122;SDS011;33907;47.426;18.906;2024-03-17T01:41:23;5.78;;;2.70;;
48122;SDS011;33907;47.426;18.906;2024-03-17T01:43:49;5.10;;;2.90;;
48122;SDS011;33907;47.426;18.906;2024-03-17T01:46:16;4.57;;;2.72;;
48122;SDS011;33907;47.426;18.906;2024-03-17T01:48:43;5.32;;;2.50;;
48122;SDS011;33907;47.426;18.906;2024-03-17T01:51:11;4.60;;;2.80;;
48122;SDS011;33907;47.426;18.906;2024-03-17T01:53:39;5.12;;;2.67;;
48122;SDS011;33907;47.426;18.906;2024-03-17T01:56:06;6.03;;;3.05;;
48122;SDS011;33907;47.426;18.906;2024-03-17T01:58:34;4.07;;;2.70;;
48122;SDS011;33907;47.426;18.906;2024-03-17T02:01:01;5.72;;;2.97;;
48122;SDS011;33907;47.426;18.906;2024-03-17T02:03:28;5.72;;;2.97;;
48122;SDS011;33907;47.426;18.906;2024-03-17T02:05:54;4.87;;;3.05;;
48122;SDS011;33907;47.426;18.906;2024-03-17T02:08:20;4.53;;;3.10;;
48122;SDS011;33907;47.426;18.906;2024-03-17T02:10:52;5.05;;;3.22;;
48122;SDS011;33907;47.426;18.906;2024-03-17T02:13:20;4.57;;;2.72;;
48122;SDS011;33907;47.426;18.906;2024-03-17T02:15:47;5.53;;;3.35;;
48122;SDS011;33907;47.426;18.906;2024-03-17T02:18:14;5.35;;;3.45;;
48122;SDS011;33907;47.426;18.906;2024-03-17T02:20:40;5.22;;;3.40;;
48122;SDS011;33907;47.426;18.906;2024-03-17T02:23:28;6.37;;;3.97;;
48122;SDS011;33907;47.426;18.906;2024-03-17T02:25:54;5.68;;;3.60;;
48122;SDS011;33907;47.426;18.906;2024-03-17T02:28:21;5.72;;;3.37;;
48122;SDS011;33907;47.426;18.906;2024-03-17T02:30:47;5.40;;;3.80;;
48122;SDS011;33907;47.426;18.906;2024-03-17T02:33:14;6.32;;;3.95;;
48122;SDS011;33907;47.426;18.906;2024-03-17T02:35:40;5.47;;;3.40;;
48122;SDS011;33907;47.426;18.906;2024-03-17T02:38:08;5.85;;;3.90;;
48122;SDS011;33907;47.426;18.906;2024-03-17T02:40:37;5.60;;;3.75;;
48122;SDS011;33907;47.426;18.906;2024-03-17T02:43:04;4.95;;;3.40;;
48122;SDS011;33907;47.426;18.906;2024-03-17T02:45:32;6.90;;;3.90;;
48122;SDS011;33907;47.426;18.906;2024-03-17T02:47:59;6.18;;;3.83;;
48122;SDS011;33907;47.426;18.906;2024-03-17T02:50:26;5.50;;;3.60;;
48122;SDS011;33907;47.426;18.906;2024-03-17T02:52:52;5.85;;;3.80;;
48122;SDS011;33907;47.426;18.906;2024-03-17T02:55:19;5.25;;;3.28;;
48122;SDS011;33907;47.426;18.906;2024-03-17T02:57:45;6.30;;;3.72;;
48122;SDS011;33907;47.426;18.906;2024-03-17T03:00:12;5.30;;;3.70;;
48122;SDS011;33907;47.426;18.906;2024-03-17T03:02:39;5.50;;;3.75;;
48122;SDS011;33907;47.426;18.906;2024-03-17T03:05:05;4.75;;;3.25;;
48122;SDS011;33907;47.426;18.906;2024-03-17T03:07:32;4.85;;;3.20;;
48122;SDS011;33907;47.426;18.906;2024-03-17T03:09:59;4.40;;;3.12;;
48122;SDS011;33907;47.426;18.906;2024-03-17T03:12:25;5.75;;;3.20;;
48122;SDS011;33907;47.426;18.906;2024-03-17T03:14:53;4.57;;;2.95;;
48122;SDS011;33907;47.426;18.906;2024-03-17T03:17:19;6.55;;;3.55;;
48122;SDS011;33907;47.426;18.906;2024-03-17T03:19:46;4.62;;;3.25;;
48122;SDS011;33907;47.426;18.906;2024-03-17T03:22:13;5.20;;;3.00;;
48122;SDS011;33907;47.426;18.906;2024-03-17T03:24:40;5.05;;;2.92;;
48122;SDS011;33907;47.426;18.906;2024-03-17T03:27:07;4.35;;;2.60;;
48122;SDS011;33907;47.426;18.906;2024-03-17T03:29:34;4.70;;;3.00;;
48122;SDS011;33907;47.426;18.906;2024-03-17T03:32:01;4.65;;;2.90;;
48122;SDS011;33907;47.426;18.906;2024-03-17T03:34:28;4.62;;;2.92;;
48122;SDS011;33907;47.426;18.906;2024-03-17T03:36:54;5.43;;;3.10;;
48122;SDS011;33907;47.426;18.906;2024-03-17T03:39:22;5.68;;;2.95;;
48122;SDS011;33907;47.426;18.906;2024-03-17T03:41:49;6.05;;;3.50;;
48122;SDS011;33907;47.426;18.906;2024-03-17T03:44:16;4.32;;;2.65;;
48122;SDS011;33907;47.426;18.906;2024-03-17T03:46:43;4.78;;;3.00;;
48122;SDS011;33907;47.426;18.906;2024-03-17T03:49:10;4.10;;;2.70;;
48122;SDS011;33907;47.426;18.906;2024-03-17T03:51:37;4.55;;;3.10;;
48122;SDS011;33907;47.426;18.906;2024-03-17T03:54:04;5.03;;;3.33;;
48122;SDS011;33907;47.426;18.906;2024-03-17T03:56:32;5.25;;;3.20;;
48122;SDS011;33907;47.426;18.906;2024-03-17T03:59:00;4.62;;;2.87;;
48122;SDS011;33907;47.426;18.906;2024-03-17T04:01:26;6.75;;;3.58;;
48122;SDS011;33907;47.426;18.906;2024-03-17T04:03:53;5.18;;;3.47;;
48122;SDS011;33907;47.426;18.906;2024-03-17T04:06:19;4.68;;;3.05;;
48122;SDS011;33907;47.426;18.906;2024-03-17T04:08:46;4.60;;;3.15;;
48122;SDS011;33907;47.426;18.906;2024-03-17T04:11:12;4.60;;;3.12;;
48122;SDS011;33907;47.426;18.906;2024-03-17T04:13:39;7.30;;;3.40;;
48122;SDS011;33907;47.426;18.906;2024-03-17T04:16:05;5.15;;;3.40;;
48122;SDS011;33907;47.426;18.906;2024-03-17T04:18:33;5.65;;;3.58;;
48122;SDS011;33907;47.426;18.906;2024-03-17T04:21:02;5.45;;;3.90;;
48122;SDS011;33907;47.426;18.906;2024-03-17T04:23:33;8.00;;;4.00;;
48122;SDS011;33907;47.426;18.906;2024-03-17T04:26:00;6.22;;;4.50;;
48122;SDS011;33907;47.426;18.906;2024-03-17T04:28:27;5.25;;;3.97;;
48122;SDS011;33907;47.426;18.906;2024-03-17T04:31:02;5.18;;;3.72;;
48122;SDS011;33907;47.426;18.906;2024-03-17T04:33:34;6.57;;;4.10;;
48122;SDS011;33907;47.426;18.906;2024-03-17T04:36:02;5.35;;;4.22;;
48122;SDS011;33907;47.426;18.906;2024-03-17T04:38:29;6.25;;;4.35;;
48122;SDS011;33907;47.426;18.906;2024-03-17T04:40:55;5.97;;;4.07;;
48122;SDS011;33907;47.426;18.906;2024-03-17T04:46:01;7.20;;;4.32;;
48122;SDS011;33907;47.426;18.906;2024-03-17T04:48:30;6.00;;;4.32;;
48122;SDS011;33907;47.426;18.906;2024-03-17T04:51:00;6.32;;;4.20;;
48122;SDS011;33907;47.426;18.906;2024-03-17T04:53:26;5.37;;;3.90;;
48122;SDS011;33907;47.426;18.906;2024-03-17T04:56:03;5.10;;;3.80;;
48122;SDS011;33907;47.426;18.906;2024-03-17T04:58:31;6.30;;;4.20;;
48122;SDS011;33907;47.426;18.906;2024-03-17T05:01:07;6.25;;;3.90;;
48122;SDS011;33907;47.426;18.906;2024-03-17T05:06:02;5.50;;;3.70;;
48122;SDS011;33907;47.426;18.906;2024-03-17T05:08:29;6.30;;;3.85;;
48122;SDS011;33907;47.426;18.906;2024-03-17T05:11:00;5.75;;;3.67;;
48122;SDS011;33907;47.426;18.906;2024-03-17T05:13:36;6.25;;;3.72;;
48122;SDS011;33907;47.426;18.906;2024-03-17T05:16:04;5.43;;;3.40;;
48122;SDS011;33907;47.426;18.906;2024-03-17T05:18:31;5.87;;;3.33;;
48122;SDS011;33907;47.426;18.906;2024-03-17T05:21:02;5.30;;;3.37;;
48122;SDS011;33907;47.426;18.906;2024-03-17T05:23:30;7.03;;;3.95;;
48122;SDS011;33907;47.426;18.906;2024-03-17T05:25:57;5.72;;;3.25;;
48122;SDS011;33907;47.426;18.906;2024-03-17T05:28:25;6.20;;;3.03;;
48122;SDS011;33907;47.426;18.906;2024-03-17T05:30:53;6.80;;;3.35;;
48122;SDS011;33907;47.426;18.906;2024-03-17T05:33:20;5.82;;;3.20;;
48122;SDS011;33907;47.426;18.906;2024-03-17T05:35:48;4.97;;;3.00;;
48122;SDS011;33907;47.426;18.906;2024-03-17T05:38:22;5.97;;;3.20;;
48122;SDS011;33907;47.426;18.906;2024-03-17T05:40:56;6.43;;;3.17;;
48122;SDS011;33907;47.426;18.906;2024-03-17T05:43:26;6.82;;;3.20;;
48122;SDS011;33907;47.426;18.906;2024-03-17T05:45:54;6.15;;;3.08;;
48122;SDS011;33907;47.426;18.906;2024-03-17T05:48:22;4.85;;;2.83;;
48122;SDS011;33907;47.426;18.906;2024-03-17T05:50:50;6.78;;;3.00;;
48122;SDS011;33907;47.426;18.906;2024-03-17T05:53:20;5.65;;;3.10;;
48122;SDS011;33907;47.426;18.906;2024-03-17T05:55:47;8.13;;;3.30;;
48122;SDS011;33907;47.426;18.906;2024-03-17T05:58:14;6.05;;;3.35;;
48122;SDS011;33907;47.426;18.906;2024-03-17T06:00:40;7.25;;;3.42;;
48122;SDS011;33907;47.426;18.906;2024-03-17T06:03:08;5.82;;;3.20;;
48122;SDS011;33907;47.426;18.906;2024-03-17T06:05:35;5.80;;;3.47;;
48122;SDS011;33907;47.426;18.906;2024-03-17T06:08:03;6.37;;;3.90;;
48122;SDS011;33907;47.426;18.906;2024-03-17T06:10:31;5.47;;;3.45;;
48122;SDS011;33907;47.426;18.906;2024-03-17T06:12:58;6.00;;;3.70;;
48122;SDS011;33907;47.426;18.906;2024-03-17T06:15:25;6.85;;;3.70;;
48122;SDS011;33907;47.426;18.906;2024-03-17T06:17:53;6.53;;;3.40;;
48122;SDS011;33907;47.426;18.906;2024-03-17T06:20:20;6.72;;;3.65;;
48122;SDS011;33907;47.426;18.906;2024-03-17T06:22:47;6.22;;;3.30;;
48122;SDS011;33907;47.426;18.906;2024-03-17T06:25:14;6.40;;;3.40;;
48122;SDS011;33907;47.426;18.906;2024-03-17T06:27:40;7.12;;;3.97;;
48122;SDS011;33907;47.426;18.906;2024-03-17T06:30:07;5.97;;;3.28;;
48122;SDS011;33907;47.426;18.906;2024-03-17T06:32:41;6.47;;;3.37;;
48122;SDS011;33907;47.426;18.906;2024-03-17T06:35:08;6.62;;;3.03;;
48122;SDS011;33907;47.426;18.906;2024-03-17T06:37:35;6.90;;;3.50;;
48122;SDS011;33907;47.426;18.906;2024-03-17T06:40:02;6.55;;;3.37;;
48122;SDS011;33907;47.426;18.906;2024-03-17T06:42:32;6.85;;;3.58;;
48122;SDS011;33907;47.426;18.906;2024-03-17T06:44:58;6.40;;;3.40;;
48122;SDS011;33907;47.426;18.906;2024-03-17T06:47:26;6.82;;;3.37;;
48122;SDS011;33907;47.426;18.906;2024-03-17T06:49:52;8.23;;;3.42;;
48122;SDS011;33907;47.426;18.906;2024-03-17T06:52:19;6.37;;;3.30;;
48122;SDS011;33907;47.426;18.906;2024-03-17T06:54:46;5.62;;;3.15;;
48122;SDS011;33907;47.426;18.906;2024-03-17T06:57:15;5.95;;;3.25;;
48122;SDS011;33907;47.426;18.906;2024-03-17T06:59:42;5.85;;;3.45;;
48122;SDS011;33907;47.426;18.906;2024-03-17T07:02:09;5.28;;;3.08;;
48122;SDS011;33907;47.426;18.906;2024-03-17T07:04:37;6.62;;;3.40;;
48122;SDS011;33907;47.426;18.906;2024-03-17T07:07:03;9.80;;;3.10;;
48122;SDS011;33907;47.426;18.906;2024-03-17T07:09:30;5.68;;;2.90;;
48122;SDS011;33907;47.426;18.906;2024-03-17T07:11:56;7.62;;;3.20;;
48122;SDS011;33907;47.426;18.906;2024-03-17T07:14:23;7.93;;;3.28;;
48122;SDS011;33907;47.426;18.906;2024-03-17T07:16:53;9.25;;;3.17;;
48122;SDS011;33907;47.426;18.906;2024-03-17T07:19:20;7.10;;;3.30;;
48122;SDS011;33907;47.426;18.906;2024-03-17T07:21:47;5.43;;;3.25;;
48122;SDS011;33907;47.426;18.906;2024-03-17T07:24:13;5.45;;;2.70;;
48122;SDS011;33907;47.426;18.906;2024-03-17T07:26:40;7.50;;;2.70;;
48122;SDS011;33907;47.426;18.906;2024-03-17T07:29:06;7.25;;;3.08;;
48122;SDS011;33907;47.426;18.906;2024-03-17T07:31:34;7.55;;;2.72;;
48122;SDS011;33907;47.426;18.906;2024-03-17T07:34:01;5.90;;;2.75;;
48122;SDS011;33907;47.426;18.906;2024-03-17T07:36:27;8.18;;;3.15;;
48122;SDS011;33907;47.426;18.906;2024-03-17T07:38:54;5.95;;;3.00;;
48122;SDS011;33907;47.426;18.906;2024-03-17T07:41:20;8.85;;;3.20;;
48122;SDS011;33907;47.426;18.906;2024-03-17T07:43:47;5.07;;;2.45;;
48122;SDS011;33907;47.426;18.906;2024-03-17T07:46:13;6.32;;;3.22;;
48122;SDS011;33907;47.426;18.906;2024-03-17T07:48:40;6.20;;;2.87;;
48122;SDS011;33907;47.426;18.906;2024-03-17T07:51:08;6.07;;;2.65;;
48122;SDS011;33907;47.426;18.906;2024-03-17T07:53:40;6.28;;;2.58;;
48122;SDS011;33907;47.426;18.906;2024-03-17T07:56:08;6.82;;;2.53;;
48122;SDS011;33907;47.426;18.906;2024-03-17T07:58:36;5.90;;;2.92;;
48122;SDS011;33907;47.426;18.906;2024-03-17T08:01:05;7.37;;;2.95;;
48122;SDS011;33907;47.426;18.906;2024-03-17T08:03:34;9.20;;;2.55;;
48122;SDS011;33907;47.426;18.906;2024-03-17T08:06:01;5.35;;;2.37;;
48122;SDS011;33907;47.426;18.906;2024-03-17T08:08:29;6.22;;;2.30;;
48122;SDS011;33907;47.426;18.906;2024-03-17T08:10:56;6.10;;;2.40;;
48122;SDS011;33907;47.426;18.906;2024-03-17T08:13:23;6.47;;;2.58;;
48122;SDS011;33907;47.426;18.906;2024-03-17T08:15:56;8.13;;;2.58;;
48122;SDS011;33907;47.426;18.906;2024-03-17T08:18:24;7.68;;;2.72;;
48122;SDS011;33907;47.426;18.906;2024-03-17T08:20:53;5.70;;;2.42;;
48122;SDS011;33907;47.426;18.906;2024-03-17T08:23:22;6.07;;;2.20;;
48122;SDS011;33907;47.426;18.906;2024-03-17T08:25:53;7.45;;;2.47;;
48122;SDS011;33907;47.426;18.906;2024-03-17T08:28:23;4.32;;;2.20;;
48122;SDS011;33907;47.426;18.906;2024-03-17T08:30:54;6.22;;;2.00;;
48122;SDS011;33907;47.426;18.906;2024-03-17T08:33:21;4.43;;;2.03;;
48122;SDS011;33907;47.426;18.906;2024-03-17T08:38:30;6.93;;;2.33;;
48122;SDS011;33907;47.426;18.906;2024-03-17T08:41:02;6.07;;;2.53;;
48122;SDS011;33907;47.426;18.906;2024-03-17T08:43:30;5.87;;;2.10;;
48122;SDS011;33907;47.426;18.906;2024-03-17T08:46:04;6.22;;;2.08;;
48122;SDS011;33907;47.426;18.906;2024-03-17T08:48:35;6.50;;;2.33;;
48122;SDS011;33907;47.426;18.906;2024-03-17T08:51:02;5.07;;;1.90;;
48122;SDS011;33907;47.426;18.906;2024-03-17T08:53:31;6.75;;;1.98;;
48122;SDS011;33907;47.426;18.906;2024-03-17T08:55:58;4.50;;;2.00;;
48122;SDS011;33907;47.426;18.906;2024-03-17T08:58:25;6.78;;;2.55;;
48122;SDS011;33907;47.426;18.906;2024-03-17T09:00:52;6.43;;;2.10;;
48122;SDS011;33907;47.426;18.906;2024-03-17T09:03:19;6.62;;;2.37;;
48122;SDS011;33907;47.426;18.906;2024-03-17T09:05:46;6.10;;;2.03;;
48122;SDS011;33907;47.426;18.906;2024-03-17T09:08:15;5.22;;;1.92;;
48122;SDS011;33907;47.426;18.906;2024-03-17T09:10:44;4.60;;;1.95;;
48122;SDS011;33907;47.426;18.906;2024-03-17T09:13:12;5.80;;;2.37;;
48122;SDS011;33907;47.426;18.906;2024-03-17T09:15:40;6.32;;;2.05;;
48122;SDS011;33907;47.426;18.906;2024-03-17T09:18:07;5.32;;;2.00;;
48122;SDS011;33907;47.426;18.906;2024-03-17T09:20:33;7.20;;;2.53;;
48122;SDS011;33907;47.426;18.906;2024-03-17T09:23:00;5.87;;;1.98;;
48122;SDS011;33907;47.426;18.906;2024-03-17T09:25:27;5.85;;;2.20;;
48122;SDS011;33907;47.426;18.906;2024-03-17T09:27:53;4.93;;;1.67;;
48122;SDS011;33907;47.426;18.906;2024-03-17T09:30:19;6.35;;;2.15;;
48122;SDS011;33907;47.426;18.906;2024-03-17T09:32:47;4.78;;;1.60;;
48122;SDS011;33907;47.426;18.906;2024-03-17T09:35:13;6.75;;;2.20;;
48122;SDS011;33907;47.426;18.906;2024-03-17T09:37:40;5.53;;;1.92;;
48122;SDS011;33907;47.426;18.906;2024-03-17T09:40:10;5.70;;;1.75;;
48122;SDS011;33907;47.426;18.906;2024-03-17T09:42:41;5.68;;;2.22;;
48122;SDS011;33907;47.426;18.906;2024-03-17T09:45:10;5.53;;;2.35;;
48122;SDS011;33907;47.426;18.906;2024-03-17T09:47:37;5.75;;;2.12;;
48122;SDS011;33907;47.426;18.906;2024-03-17T09:50:03;5.40;;;2.33;;
48122;SDS011;33907;47.426;18.906;2024-03-17T09:52:31;4.65;;;2.20;;
48122;SDS011;33907;47.426;18.906;2024-03-17T09:54:59;5.22;;;1.95;;
48122;SDS011;33907;47.426;18.906;2024-03-17T09:57:27;6.35;;;2.72;;
48122;SDS011;33907;47.426;18.906;2024-03-17T09:59:55;7.07;;;2.30;;
48122;SDS011;33907;47.426;18.906;2024-03-17T10:02:21;6.05;;;2.20;;
48122;SDS011;33907;47.426;18.906;2024-03-17T10:04:49;4.72;;;2.03;;
48122;SDS011;33907;47.426;18.906;2024-03-17T10:07:16;5.30;;;2.47;;
48122;SDS011;33907;47.426;18.906;2024-03-17T10:09:42;4.47;;;1.70;;
48122;SDS011;33907;47.426;18.906;2024-03-17T10:12:28;7.20;;;2.20;;
48122;SDS011;33907;47.426;18.906;2024-03-17T10:14:58;5.72;;;1.90;;
48122;SDS011;33907;47.426;18.906;2024-03-17T10:17:32;5.32;;;1.62;;
48122;SDS011;33907;47.426;18.906;2024-03-17T10:22:58;6.53;;;2.10;;
48122;SDS011;33907;47.426;18.906;2024-03-17T10:25:38;6.70;;;1.90;;
48122;SDS011;33907;47.426;18.906;2024-03-17T10:28:10;5.50;;;1.85;;
48122;SDS011;33907;47.426;18.906;2024-03-17T10:30:38;5.75;;;1.83;;
48122;SDS011;33907;47.426;18.906;2024-03-17T10:33:06;4.20;;;2.10;;
48122;SDS011;33907;47.426;18.906;2024-03-17T10:35:37;4.87;;;2.08;;
48122;SDS011;33907;47.426;18.906;2024-03-17T10:38:09;6.07;;;2.28;;
48122;SDS011;33907;47.426;18.906;2024-03-17T10:40:35;5.87;;;1.95;;
48122;SDS011;33907;47.426;18.906;2024-03-17T10:43:05;5.90;;;2.22;;
48122;SDS011;33907;47.426;18.906;2024-03-17T10:45:32;6.68;;;2.17;;
48122;SDS011;33907;47.426;18.906;2024-03-17T10:48:08;5.28;;;1.83;;
48122;SDS011;33907;47.426;18.906;2024-03-17T10:50:36;3.92;;;1.90;;
48122;SDS011;33907;47.426;18.906;2024-03-17T10:53:05;5.50;;;2.20;;
48122;SDS011;33907;47.426;18.906;2024-03-17T10:55:45;7.37;;;2.40;;
48122;SDS011;33907;47.426;18.906;2024-03-17T10:58:22;5.10;;;2.45;;
48122;SDS011;33907;47.426;18.906;2024-03-17T11:00:51;4.70;;;2.00;;
48122;SDS011;33907;47.426;18.906;2024-03-17T11:03:18;5.53;;;1.92;;
48122;SDS011;33907;47.426;18.906;2024-03-17T11:05:46;4.35;;;1.90;;
48122;SDS011;33907;47.426;18.906;2024-03-17T11:08:16;5.43;;;1.60;;
48122;SDS011;33907;47.426;18.906;2024-03-17T11:10:50;5.00;;;2.53;;
48122;SDS011;33907;47.426;18.906;2024-03-17T11:13:28;7.40;;;2.37;;
48122;SDS011;33907;47.426;18.906;2024-03-17T11:15:55;6.15;;;2.22;;
48122;SDS011;33907;47.426;18.906;2024-03-17T11:18:28;3.58;;;1.90;;
48122;SDS011;33907;47.426;18.906;2024-03-17T11:21:03;5.20;;;1.87;;
48122;SDS011;33907;47.426;18.906;2024-03-17T11:23:42;5.93;;;2.03;;
48122;SDS011;33907;47.426;18.906;2024-03-17T11:26:08;7.00;;;2.03;;
48122;SDS011;33907;47.426;18.906;2024-03-17T11:34:03;5.87;;;2.10;;
48122;SDS011;33907;47.426;18.906;2024-03-17T11:36:35;4.32;;;1.73;;
48122;SDS011;33907;47.426;18.906;2024-03-17T11:39:04;5.57;;;1.60;;
48122;SDS011;33907;47.426;18.906;2024-03-17T11:41:43;3.58;;;1.52;;
48122;SDS011;33907;47.426;18.906;2024-03-17T11:46:50;4.00;;;1.60;;
48122;SDS011;33907;47.426;18.906;2024-03-17T11:52:09;4.53;;;1.50;;
48122;SDS011;33907;47.426;18.906;2024-03-17T11:54:40;4.75;;;1.80;;
48122;SDS011;33907;47.426;18.906;2024-03-17T11:57:12;4.00;;;1.83;;
48122;SDS011;33907;47.426;18.906;2024-03-17T11:59:51;6.12;;;2.20;;
48122;SDS011;33907;47.426;18.906;2024-03-17T12:02:22;4.43;;;1.83;;
48122;SDS011;33907;47.426;18.906;2024-03-17T12:04:52;5.80;;;1.70;;
48122;SDS011;33907;47.426;18.906;2024-03-17T12:07:20;4.95;;;1.45;;
48122;SDS011;33907;47.426;18.906;2024-03-17T12:09:52;4.53;;;1.60;;
48122;SDS011;33907;47.426;18.906;2024-03-17T12:14:47;3.90;;;1.42;;
48122;SDS011;33907;47.426;18.906;2024-03-17T12:17:15;3.08;;;1.25;;
48122;SDS011;33907;47.426;18.906;2024-03-17T12:19:47;3.80;;;1.20;;
48122;SDS011;33907;47.426;18.906;2024-03-17T12:22:15;4.55;;;1.70;;
48122;SDS011;33907;47.426;18.906;2024-03-17T12:24:43;6.07;;;1.50;;
48122;SDS011;33907;47.426;18.906;2024-03-17T12:27:15;5.68;;;1.80;;
48122;SDS011;33907;47.426;18.906;2024-03-17T12:29:43;4.35;;;1.50;;
48122;SDS011;33907;47.426;18.906;2024-03-17T12:32:23;5.93;;;1.75;;
48122;SDS011;33907;47.426;18.906;2024-03-17T12:34:52;3.42;;;1.60;;
48122;SDS011;33907;47.426;18.906;2024-03-17T12:37:23;7.28;;;1.95;;
48122;SDS011;33907;47.426;18.906;2024-03-17T12:39:51;4.62;;;1.52;;
48122;SDS011;33907;47.426;18.906;2024-03-17T12:42:23;5.22;;;1.62;;
48122;SDS011;33907;47.426;18.906;2024-03-17T12:44:53;4.18;;;1.60;;
48122;SDS011;33907;47.426;18.906;2024-03-17T12:47:22;4.93;;;1.65;;
48122;SDS011;33907;47.426;18.906;2024-03-17T12:49:53;5.85;;;1.48;;
48122;SDS011;33907;47.426;18.906;2024-03-17T12:52:22;3.30;;;1.50;;
48122;SDS011;33907;47.426;18.906;2024-03-17T12:54:59;5.97;;;1.70;;
48122;SDS011;33907;47.426;18.906;2024-03-17T12:57:49;4.85;;;1.58;;
48122;SDS011;33907;47.426;18.906;2024-03-17T13:00:35;5.47;;;1.50;;
48122;SDS011;33907;47.426;18.906;2024-03-17T13:03:04;6.20;;;1.60;;
48122;SDS011;33907;47.426;18.906;2024-03-17T13:05:34;4.30;;;1.45;;
48122;SDS011;33907;47.426;18.906;2024-03-17T13:08:02;3.80;;;1.25;;
48122;SDS011;33907;47.426;18.906;2024-03-17T13:10:29;4.00;;;1.37;;
48122;SDS011;33907;47.426;18.906;2024-03-17T13:13:03;5.47;;;1.40;;
48122;SDS011;33907;47.426;18.906;2024-03-17T13:15:31;4.50;;;1.80;;
48122;SDS011;33907;47.426;18.906;2024-03-17T13:18:04;5.37;;;1.50;;
48122;SDS011;33907;47.426;18.906;2024-03-17T13:20:31;3.95;;;1.33;;
48122;SDS011;33907;47.426;18.906;2024-03-17T13:22:58;3.85;;;1.50;;
48122;SDS011;33907;47.426;18.906;2024-03-17T13:25:28;4.65;;;1.58;;
48122;SDS011;33907;47.426;18.906;2024-03-17T13:28:03;4.07;;;1.62;;
48122;SDS011;33907;47.426;18.906;2024-03-17T13:30:30;6.40;;;2.15;;
48122;SDS011;33907;47.426;18.906;2024-03-17T13:33:00;4.22;;;1.52;;
48122;SDS011;33907;47.426;18.906;2024-03-17T13:35:27;4.78;;;1.67;;
48122;SDS011;33907;47.426;18.906;2024-03-17T13:37:57;5.45;;;1.60;;
48122;SDS011;33907;47.426;18.906;2024-03-17T13:40:28;5.10;;;1.35;;
48122;SDS011;33907;47.426;18.906;2024-03-17T13:42:55;4.10;;;1.98;;
48122;SDS011;33907;47.426;18.906;2024-03-17T13:45:23;3.33;;;1.35;;
48122;SDS011;33907;47.426;18.906;2024-03-17T13:47:58;3.95;;;1.30;;
48122;SDS011;33907;47.426;18.906;2024-03-17T13:50:25;3.92;;;1.30;;
48122;SDS011;33907;47.426;18.906;2024-03-17T13:52:52;4.10;;;1.40;;
48122;SDS011;33907;47.426;18.906;2024-03-17T13:55:20;4.53;;;1.62;;
48122;SDS011;33907;47.426;18.906;2024-03-17T13:57:49;5.20;;;1.37;;
48122;SDS011;33907;47.426;18.906;2024-03-17T14:00:27;5.12;;;1.40;;
48122;SDS011;33907;47.426;18.906;2024-03-17T14:02:54;4.00;;;1.40;;
48122;SDS011;33907;47.426;18.906;2024-03-17T14:05:23;3.78;;;1.20;;
48122;SDS011;33907;47.426;18.906;2024-03-17T14:07:51;5.45;;;1.45;;
48122;SDS011;33907;47.426;18.906;2024-03-17T14:10:18;3.83;;;1.20;;
48122;SDS011;33907;47.426;18.906;2024-03-17T14:12:45;3.97;;;1.70;;
48122;SDS011;33907;47.426;18.906;2024-03-17T14:15:13;3.95;;;1.42;;
48122;SDS011;33907;47.426;18.906;2024-03-17T14:17:40;5.45;;;1.33;;
48122;SDS011;33907;47.426;18.906;2024-03-17T14:20:08;7.53;;;1.73;;
48122;SDS011;33907;47.426;18.906;2024-03-17T14:22:38;5.75;;;1.40;;
48122;SDS011;33907;47.426;18.906;2024-03-17T14:25:09;3.70;;;1.42;;
48122;SDS011;33907;47.426;18.906;2024-03-17T14:27:37;4.57;;;1.12;;
48122;SDS011;33907;47.426;18.906;2024-03-17T14:30:04;4.30;;;1.42;;
48122;SDS011;33907;47.426;18.906;2024-03-17T14:32:32;4.57;;;1.40;;
48122;SDS011;33907;47.426;18.906;2024-03-17T14:34:58;5.60;;;1.42;;
48122;SDS011;33907;47.426;18.906;2024-03-17T14:37:25;5.40;;;1.62;;
48122;SDS011;33907;47.426;18.906;2024-03-17T14:39:53;5.82;;;1.80;;
48122;SDS011;33907;47.426;18.906;2024-03-17T14:42:20;5.32;;;1.77;;
48122;SDS011;33907;47.426;18.906;2024-03-17T14:44:47;5.10;;;2.10;;
48122;SDS011;33907;47.426;18.906;2024-03-17T14:47:14;6.97;;;1.65;;
48122;SDS011;33907;47.426;18.906;2024-03-17T14:49:42;5.20;;;1.58;;
48122;SDS011;33907;47.426;18.906;2024-03-17T14:52:09;5.80;;;1.87;;
48122;SDS011;33907;47.426;18.906;2024-03-17T14:54:36;5.05;;;1.55;;
48122;SDS011;33907;47.426;18.906;2024-03-17T14:57:02;5.00;;;1.85;;
48122;SDS011;33907;47.426;18.906;2024-03-17T14:59:29;8.73;;;2.10;;
48122;SDS011;33907;47.426;18.906;2024-03-17T15:01:56;5.90;;;1.87;;
48122;SDS011;33907;47.426;18.906;2024-03-17T15:04:24;5.22;;;1.70;;